Latest Coastal Weather Observations for Cape Grim

IDV60701

Issued at 3:51 am EST Saturday 30 July 2016 (issued every 10 minutes, with the page automatically refreshed every 10 minutes)

About coastal observations | Map of coastal stations | Coastal observations for VIC | Marine services | Other Formats
Station Details ID: 091331 Name: CAPE GRIM Lat: -40.68 Lon: 144.69 Height: 86.0 m
Data from the previous 72 hours. | See also: Recent months at Cape Grim
Date/Time
EST
Temp
°C
Wind Pressure Rain since
9am
mm
Weather Cloud Vis
km
Sea
Height
m
Swell
Dir  Spd
kts
Gust
kts
hPa Trend Height
m
Period
s
Dir
30/03:30am 9.8 SW 8 10 1019.1 - 0.8 - Partly cloudy - - - - -
30/03:00am 9.9 SW 12 16 1019.4 - 0.8 - Cloudy - - - - -
30/02:30am 10.1 W 11 18 1019.5 - 0.8 - Cloudy - - - - -
30/02:00am 10.1 W 10 17 1019.5 - 0.8 - Cloudy - - - - -
30/01:30am 9.9 WSW 10 15 1019.6 - 0.8 - Cloudy - - - - -
30/01:00am 10.0 WSW 10 15 1019.5 - 0.8 - Partly cloudy - - - - -
30/12:30am 9.6 SW 14 18 1019.3 - 0.8 - - - - - - -
30/12:00am 9.8 SW 15 21 1019.4 - 0.8 - Partly cloudy - - - - -
 
Date/Time
EST
Temp
°C
Wind Pressure Rain since
9am
mm
Weather Cloud Vis
km
Sea
Height
m
Swell
Dir  Spd
kts
Gust
kts
hPa Trend Height
m
Period
s
Dir
29/11:30pm 9.9 SW 20 27 1019.2 - 0.8 - Partly cloudy - - - - -
29/11:00pm 10.2 SW 18 25 1019.2 - 0.8 - Cloudy - - - - -
29/10:30pm 10.2 SW 19 25 1018.9 - 0.8 - Partly cloudy - - - - -
29/10:00pm 10.3 SW 23 31 1018.7 - 0.8 - Partly cloudy - - - - -
29/09:30pm 10.6 SW 22 28 1018.5 - 0.8 - Partly cloudy - - - - -
29/09:00pm 10.4 SW 24 31 1018.3 - 0.8 - Mostly clear - - - - -
29/08:30pm 10.8 SW 26 32 1017.9 - 0.8 - Partly cloudy - - - - -
29/08:00pm 10.9 SW 23 32 1017.5 - 0.8 - Partly cloudy - - - - -
29/07:33pm 10.9 SW 25 35 1016.9 - 0.8 - - - - - - -
29/07:30pm 10.9 SW 27 36 1016.9 - 0.8 - - - - - - -
29/07:21pm 10.9 SW 29 39 1016.7 - 0.8 - - - - - - -
29/07:00pm 10.7 SW 32 39 1016.5 - 0.8 - Partly cloudy - - - - -
29/06:30pm 11.1 SW 27 34 1015.9 - 0.8 - Partly cloudy - - - - -
29/06:07pm 10.8 SW 26 36 1015.5 - 0.8 - Partly cloudy - - - - -
29/06:00pm 10.6 SW 29 37 1015.4 - 0.8 - Cloudy - - - - -
29/05:30pm 11.6 SW 25 36 1014.7 - 0.8 - Partly cloudy - - - - -
29/05:00pm 11.0 WSW 24 43 1014.4 - 0.8 - Partly cloudy - - - - -
29/04:30pm 11.3 WSW 19 36 1014.0 - 0.6 - Partly cloudy - - - - -
29/04:00pm 11.5 WSW 16 28 1013.9 - 0.6 - Partly cloudy - - - - -
29/03:30pm 11.1 W 21 34 1013.8 - 0.6 - Partly cloudy - - - - -
29/03:00pm 12.2 W 27 39 1013.1 - 0.2 Recent precip. Cloudy - - - - -
29/02:31pm 12.2 W 23 35 1013.1 - 0.2 - Partly cloudy - - - - -
29/02:30pm 12.2 W 22 30 1013.1 - 0.2 - Partly cloudy - - - - -
29/02:00pm 12.4 W 23 33 1013.1 - 0.0 - Partly cloudy - - - - -
29/01:30pm 11.8 W 22 33 1013.3 - 0.0 - Partly cloudy - - - - -
29/01:01pm 11.8 W 20 30 1013.6 - 0.0 - Partly cloudy - - - - -
29/01:00pm 11.8 W 21 30 1013.6 - 0.0 - Partly cloudy - - - - -
29/12:30pm 12.0 W 21 32 1013.7 - 0.0 - Partly cloudy - - - - -
29/12:00pm 12.1 W 22 34 1013.9 - 0.0 - Mostly cloudy - - - - -
29/11:32am 12.1 W 20 30 1014.2 - 0.0 - Partly cloudy - - - - -
29/11:30am 12.1 W 21 30 1014.2 - 0.0 - Partly cloudy - - - - -
29/11:00am 12.0 W 23 34 1014.2 - 0.0 - Partly cloudy - - - - -
29/10:45am 12.0 W 21 31 1014.3 - 0.0 - Partly cloudy - - - - -
29/10:30am 11.7 W 23 32 1014.3 - 0.0 - Partly cloudy - - - - -
29/10:00am 11.6 W 21 32 1014.2 - 0.0 - Partly cloudy - - - - -
29/09:41am 11.4 W 23 35 1014.1 - 0.0 - Partly cloudy - - - - -
29/09:30am 11.6 W 22 30 1014.0 - 0.0 - Partly cloudy - - - - -
29/09:00am 11.3 W 21 32 1014.0 - 3.6 Recent precip. Cloudy - - - - -
29/08:58am 11.4 W 21 31 1014.0 - 3.6 - Partly cloudy - - - - -
29/08:47am 11.3 W 21 28 1014.0 - 3.6 - Partly cloudy - - - - -
29/08:30am 10.9 W 19 27 1014.1 - 3.6 - Partly cloudy - - - - -
29/08:20am 10.5 W 19 29 1014.0 - 3.6 - Partly cloudy - - - - -
29/08:19am 10.8 W 19 29 1013.9 - 3.6 - Partly cloudy - - - - -
29/08:00am 11.5 W 19 26 1013.9 - 3.4 - Partly cloudy - - - - -
29/07:30am 11.2 W 19 27 1013.9 - 3.4 - Partly cloudy - - - - -
29/07:00am 10.7 W 22 35 1013.9 - 3.2 - Partly cloudy - - - - -
29/06:45am 11.2 W 19 33 1014.0 - 3.0 - Partly cloudy - - - - -
29/06:30am 11.0 W 21 29 1013.9 - 3.0 - Partly cloudy - - - - -
29/06:00am 11.1 W 20 30 1013.9 - 3.0 - Cloudy - - - - -
29/05:38am 11.3 W 18 28 1013.8 - 3.0 - Partly cloudy - - - - -
29/05:30am 11.1 W 19 27 1013.8 - 3.0 - Partly cloudy - - - - -
29/05:13am 10.9 W 23 33 1013.6 - 3.0 - Partly cloudy - - - - -
29/05:02am 10.8 W 21 29 1013.5 - 3.0 - Partly cloudy - - - - -
29/05:00am 10.8 W 21 29 1013.6 - 3.0 - Partly cloudy - - - - -
29/04:33am 10.7 W 20 30 1013.8 - 2.4 - Partly cloudy - - - - -
29/04:31am 10.6 W 21 30 1013.8 - 2.4 - Partly cloudy - - - - -
29/04:30am 10.6 W 21 30 1013.9 - 2.4 - Partly cloudy - - - - -
29/04:14am 11.0 W 20 32 1013.9 - 2.4 - Partly cloudy - - - - -
29/04:00am 11.3 W 20 29 1013.8 - 2.4 - Partly cloudy - - - - -
29/03:54am 11.3 W 19 29 1013.9 - 2.4 - Partly cloudy - - - - -
29/03:30am 11.1 W 20 27 1014.1 - 2.4 - Partly cloudy - - - - -
29/03:00am 10.5 W 20 29 1014.3 - 2.4 - Cloudy - - - - -
29/02:30am 10.9 W 19 26 1014.5 - 2.4 - Partly cloudy - - - - -
29/02:00am 10.8 W 20 28 1014.6 - 2.4 - Partly cloudy - - - - -
29/01:36am 11.2 W 22 32 1014.8 - 2.2 - Partly cloudy - - - - -
29/01:30am 11.1 W 25 32 1014.8 - 2.2 - Partly cloudy - - - - -
29/01:00am 11.4 W 19 27 1015.0 - 2.2 - Partly cloudy - - - - -
29/12:30am 11.3 W 19 30 1015.2 - 2.2 - Partly cloudy - - - - -
29/12:09am 11.1 W 22 33 1015.3 - 2.2 - Partly cloudy - - - - -
29/12:00am 11.0 W 20 28 1015.4 - 2.2 Recent precip. Mostly cloudy - - - - -
 
Date/Time
EST
Temp
°C
Wind Pressure Rain since
9am
mm
Weather Cloud Vis
km
Sea
Height
m
Swell
Dir  Spd
kts
Gust
kts
hPa Trend Height
m
Period
s
Dir
28/11:30pm 11.0 W 21 32 1015.6 - 2.2 - Partly cloudy - - - - -
28/11:00pm 10.6 W 21 31 1015.7 - 2.0 - Partly cloudy - - - - -
28/10:38pm 10.5 W 24 34 1016.0 - 1.6 - Partly cloudy - - - - -
28/10:30pm 10.9 W 25 32 1016.0 - 1.4 - Partly cloudy - - - - -
28/10:00pm 11.2 W 18 28 1016.3 - 1.4 - Partly cloudy - - - - -
28/09:30pm 11.0 W 17 27 1016.6 - 1.4 - Partly cloudy - - - - -
28/09:04pm 11.0 W 21 31 1016.7 - 1.4 - Partly cloudy - - - - -
28/09:00pm 10.9 W 20 27 1016.9 - 1.4 - Cloudy - - - - -
28/08:37pm 11.4 W 19 29 1017.0 - 1.4 - Partly cloudy - - - - -
28/08:30pm 11.3 W 21 29 1016.9 - 1.4 - Cloudy - - - - -
28/08:00pm 10.8 W 22 31 1017.1 - 1.4 - Partly cloudy - - - - -
28/07:31pm 10.7 W 20 30 1016.9 - 1.4 - Partly cloudy - - - - -
28/07:30pm 10.9 W 20 26 1016.9 - 1.4 - Partly cloudy - - - - -
28/07:29pm 10.9 W 20 26 1016.9 - 1.4 - Partly cloudy - - - - -
28/07:00pm 10.7 W 19 29 1016.8 - 1.2 - Partly cloudy - - - - -
28/06:56pm 10.7 W 19 29 1016.8 - 1.2 - Partly cloudy - - - - -
28/06:40pm 10.9 W 20 29 1016.6 - 1.2 - Partly cloudy - - - - -
28/06:33pm 11.0 W 17 29 1016.6 - 1.0 - Partly cloudy - - - - -
28/06:30pm 10.9 W 18 24 1016.6 - 1.0 - Partly cloudy - - - - -
28/06:00pm 11.1 W 18 27 1016.5 - 1.0 - Cloudy - - - - -
28/05:30pm 11.2 W 18 27 1016.3 - 1.0 - Partly cloudy - - - - -
28/05:00pm 11.6 W 23 35 1016.2 - 1.0 - Partly cloudy - - - - -
28/04:30pm 11.5 W 24 37 1016.3 - 1.0 - Partly cloudy - - - - -
28/04:17pm 11.4 W 24 34 1016.2 - 0.8 - Partly cloudy - - - - -
28/04:00pm 11.4 W 23 30 1016.1 - 0.8 - Partly cloudy - - - - -
28/03:37pm 10.5 W 25 36 1016.0 - 0.8 - Partly cloudy - - - - -
28/03:30pm 11.4 W 23 32 1015.9 - 0.8 - Partly cloudy - - - - -
28/03:00pm 11.3 W 23 33 1015.5 - 0.8 - Partly cloudy - - - - -
28/02:30pm 11.0 W 21 36 1015.6 - 0.8 - Partly cloudy - - - - -
28/02:00pm 11.1 W 20 31 1015.6 - 0.8 - Partly cloudy - - - - -
28/01:43pm 10.8 W 22 32 1015.9 - 0.8 - Partly cloudy - - - - -
28/01:42pm 10.8 W 23 32 1015.9 - 0.8 - Partly cloudy - - - - -
28/01:30pm 10.1 W 24 35 1016.0 - 0.8 - Partly cloudy - - - - -
28/01:00pm 10.7 W 22 36 1016.1 - 0.2 - Partly cloudy - - - - -
28/12:30pm 11.5 W 23 35 1016.3 - 0.0 - Partly cloudy - - - - -
28/12:00pm 10.9 W 25 36 1016.5 - 0.0 - Mostly cloudy - - - - -
28/11:30am 10.9 W 24 34 1016.7 - 0.0 - Partly cloudy - - - - -
28/11:01am 10.9 W 23 33 1016.7 - 0.0 - Partly cloudy - - - - -
28/11:00am 11.0 W 24 33 1016.7 - 0.0 - Partly cloudy - - - - -
28/10:30am 11.1 W 22 33 1016.4 - 0.0 - Partly cloudy - - - - -
28/10:03am 11.1 W 22 32 1016.4 - 0.0 - Partly cloudy - - - - -
28/10:00am 11.5 W 22 29 1016.3 - 0.0 - Partly cloudy - - - - -
28/09:30am 10.7 W 23 34 1016.4 - 0.0 - Partly cloudy - - - - -
28/09:00am 11.2 W 23 33 1016.3 - 3.0 Recent precip. Cloudy - - - - -
28/08:41am 10.9 W 23 33 1016.1 - 3.0 - Partly cloudy - - - - -
28/08:30am 10.8 W 23 32 1015.9 - 3.0 - Partly cloudy - - - - -
28/08:00am 11.1 W 25 37 1015.7 - 2.8 - Partly cloudy - - - - -
28/07:30am 10.7 W 23 33 1015.4 - 2.8 - Partly cloudy - - - - -
28/07:00am 11.2 W 22 33 1015.3 - 2.8 - Partly cloudy - - - - -
28/06:30am 11.0 W 22 33 1014.9 - 2.6 - Partly cloudy - - - - -
28/06:00am 10.9 W 24 34 1014.8 - 2.6 - Mostly cloudy - - - - -
28/05:30am 11.2 W 24 35 1014.7 - 2.6 - Partly cloudy - - - - -
28/05:05am 10.9 W 24 37 1014.4 - 2.6 - Partly cloudy - - - - -
28/05:00am 11.3 W 24 32 1014.5 - 2.6 - Partly cloudy - - - - -
28/04:33am 11.1 W 23 33 1014.5 - 2.6 - Partly cloudy - - - - -
28/04:30am 11.1 W 22 30 1014.5 - 2.6 - Partly cloudy - - - - -
28/04:00am 11.3 W 25 40 1014.5 - 2.6 - Partly cloudy - - - - -
28/03:30am 11.2 W 23 33 1014.5 - 2.6 - Partly cloudy - - - - -
28/03:00am 11.1 W 22 33 1014.7 - 2.6 - Mostly cloudy - - - - -
28/02:39am 11.2 W 22 32 1014.8 - 2.6 - Partly cloudy - - - - -
28/02:30am 11.2 W 24 33 1014.8 - 2.6 - Partly cloudy - - - - -
28/02:00am 10.9 W 22 35 1014.8 - 2.6 - Partly cloudy - - - - -
28/01:30am 11.4 W 20 30 1014.6 - 2.4 - Partly cloudy - - - - -
28/01:00am 11.2 W 20 32 1014.5 - 2.4 - Partly cloudy - - - - -
28/12:30am 11.3 W 18 29 1014.4 - 2.4 - Partly cloudy - - - - -
28/12:00am 11.2 W 18 29 1014.7 - 2.2 Recent precip. Partly cloudy - - - - -
 
Date/Time
EST
Temp
°C
Wind Pressure Rain since
9am
mm
Weather Cloud Vis
km
Sea
Height
m
Swell
Dir  Spd
kts
Gust
kts
hPa Trend Height
m
Period
s
Dir
27/11:30pm 10.8 W 17 27 1014.7 - 2.2 - Partly cloudy - - - - -
27/11:03pm 11.3 W 21 31 1014.4 - 2.0 - Partly cloudy - - - - -
27/11:00pm 11.2 W 21 30 1014.4 - 2.0 - Partly cloudy - - - - -
27/10:30pm 11.1 W 22 37 1014.1 - 2.0 - Partly cloudy - - - - -
27/10:00pm 11.6 WSW 20 34 1014.1 - 1.4 - Partly cloudy - - - - -
27/09:30pm 11.3 WSW 20 32 1013.9 - 1.4 - Partly cloudy - - - - -
27/09:11pm 11.1 WSW 21 38 1013.7 - 1.2 - Partly cloudy - - - - -
27/09:00pm 11.7 W 21 33 1013.7 - 1.2 Recent precip. Cloudy - - - - -
27/08:35pm 11.2 W 25 35 1013.2 - 0.8 - Partly cloudy - - - - -
27/08:30pm 11.3 W 25 34 1013.2 - 0.8 - Partly cloudy - - - - -
27/08:00pm 11.3 W 27 41 1012.8 - 0.6 - Partly cloudy - - - - -
27/07:30pm 11.4 W 25 39 1012.8 - 0.6 - Partly cloudy - - - - -
27/07:00pm 10.8 W 25 35 1012.7 - 0.4 - Partly cloudy - - - - -
27/06:30pm 10.8 W 25 36 1012.2 - 0.4 - Partly cloudy - - - - -
27/06:00pm 10.8 W 27 39 1011.9 - 0.2 - Cloudy - - - - -
27/05:30pm 10.1 W 29 40 1011.7 - 0.2 - Partly cloudy - - - - -
27/05:00pm 10.0 W 26 37 1011.4 - 0.2 - Partly cloudy - - - - -
27/04:30pm 9.7 W 26 37 1011.3 - 0.2 - Partly cloudy - - - - -
27/04:00pm 10.1 W 25 35 1011.2 - 0.2 - Partly cloudy - - - - -
27/03:31pm 9.3 W 24 34 1011.1 - 0.2 - Partly cloudy - - - - -
27/03:30pm 9.5 W 24 33 1011.1 - 0.2 - Partly cloudy - - - - -
27/03:00pm 9.4 W 26 42 1010.7 - 0.2 Recent precip. Mostly cloudy - - - - -
27/02:30pm 9.6 W 22 35 1011.0 - 0.2 - Partly cloudy - - - - -
27/02:00pm 9.6 W 23 37 1011.0 - 0.0 - Partly cloudy - - - - -
27/01:30pm 9.8 W 23 33 1010.6 - 0.0 - Partly cloudy - - - - -
27/01:00pm 9.6 W 22 33 1010.7 - 0.0 - Partly cloudy - - - - -
27/12:30pm 9.2 W 21 34 1010.7 - 0.0 - Partly cloudy - - - - -
27/12:00pm 8.9 W 22 32 1010.7 - 0.0 - Mostly cloudy - - - - -
27/11:30am 9.5 WSW 17 29 1010.6 - 0.0 - Partly cloudy - - - - -
27/11:11am 9.4 WSW 18 27 1010.5 - 0.0 - Partly cloudy - - - - -
27/11:10am 9.4 WSW 19 29 1010.4 - 0.0 - Partly cloudy - - - - -
27/11:03am 8.5 SW 23 33 1010.6 - 0.0 - Partly cloudy - - - - -
27/11:00am 8.3 SW 24 33 1010.7 - 0.0 - Partly cloudy - - - - -
27/10:30am 9.6 SW 20 31 1010.2 - 0.0 - Partly cloudy - - - - -
27/10:00am 8.7 WSW 17 30 1009.9 - 0.0 - Partly cloudy - - - - -
27/09:35am 9.2 SW 25 35 1009.2 - 0.0 - - - - - - -
27/09:30am 9.2 SW 26 35 1009.2 - 0.0 - - - - - - -
27/09:00am 8.9 SW 27 34 1008.6 - 27.4 - Mostly clear - - - - -
27/08:30am 8.7 SW 30 37 1008.0 - 27.4 - Partly cloudy - - - - -
27/08:18am 8.6 SW 28 38 1007.6 - 27.4 - Partly cloudy - - - - -
27/08:00am 8.5 SW 29 36 1007.2 - 27.4 - - - - - - -
27/07:38am 8.5 SW 29 39 1006.7 - 27.4 - Partly cloudy - - - - -
27/07:30am 8.6 SW 30 38 1006.4 - 27.4 - Partly cloudy - - - - -
27/07:00am 8.5 SW 27 35 1005.6 - 27.4 - Partly cloudy - - - - -
27/06:30am 7.9 SW 25 37 1005.3 - 27.4 - - - - - - -
27/06:27am 7.8 SW 23 33 1005.2 - 27.4 - - - - - - -
27/06:19am 7.6 SSW 24 35 1005.1 - 27.4 - Partly cloudy - - - - -
27/06:00am 8.0 SW 31 41 1004.4 - 27.4 - Partly cloudy - - - - -
27/05:31am 8.2 SW 25 35 1003.9 - 27.4 - Partly cloudy - - - - -
27/05:30am 8.1 SW 25 34 1003.8 - 27.4 - Partly cloudy - - - - -
27/05:00am 8.4 SW 29 40 1003.0 - 27.4 - Partly cloudy - - - - -
27/04:31am 8.5 SW 25 37 1002.3 - 27.4 - Partly cloudy - - - - -
27/04:30am 8.8 SSW 24 33 1002.3 - 27.4 - Partly cloudy - - - - -
27/04:01am 8.7 SW 25 35 1001.7 - 27.4 - Partly cloudy - - - - -
27/04:00am 8.6 SW 26 35 1001.7 - 27.4 - Partly cloudy - - - - -

Other Formats:

Comma delimited format used in spreadsheet applications
http://www.bom.gov.au/fwo/IDV60701/IDV60701.95954.axf

JavaScript Object Notation format (JSON) in row-major order
http://www.bom.gov.au/fwo/IDV60701/IDV60701.95954.json